Sulphur Springs, TX

1:39 AM CDT on May 24, 2017 (GMT -0500)
Sulphur Springs Municipal

Weather History for KSLR - August, 2013

Change the Weather History Date:

Saturday, August 17, 2013

  Actual Average (KGVT) Record (KGVT)
Temperature  
Mean Temperature 75 °F -  
Max Temperature 88 °F 91 °F 105 °F (2011)
Min Temperature 62 °F 73 °F 60 °F (2013)
Cooling Degree Days 10    
Growing Degree Days 25 (Base 50)    
Moisture  
Dew Point 57 °F    
Average Humidity 59    
Maximum Humidity 88    
Minimum Humidity 30    
Precipitation  
Precipitation 0.00 in - - ()
Sea Level Pressure  
Sea Level Pressure 30.08 in    
Wind  
Wind Speed 4 mph (ENE)    
Max Wind Speed 14 mph    
Max Gust Speed 16 mph    
Visibility 10 miles    
Events      
Averages and records for this station are not official NWS values.
T = Trace of Precipitation, MM = Missing Value Source: NWS Daily Summary

Daily Weather History Graph

Daily Weather History Graph

Search for Another Location

Airport or City:

Trip Planner

Search our weather history database for the weather conditions in past years. The results will help you decide how hot, cold, wet, or windy it might be!

Date:

Astronomy

Aug. 17, 2013 Rise Set
Actual Time 6:46 AM CDT 8:05 PM CDT
Civil Twilight 6:20 AM CDT 8:31 PM CDT
Nautical Twilight 5:49 AM CDT 9:02 PM CDT
Astronomical Twilight 5:17 AM CDT 9:34 PM CDT
Moon 5:16 PM CDT (8/17) 2:56 AM CDT (8/17)
Length of Visible Light 14h 10m
Length of Day
13h 18m
Waxing Gibbous, 84% of the Moon is Illuminated
Aug 17
Waxing Gibbous
Aug 20
Full
Aug 28
Last Quarter
Sep 5
New
Sep 12
First Quarter

Hourly Weather History & Observations

Time (CDT) Temp. Heat Index Dew Point Humidity Pressure Visibility Wind Dir Wind Speed Gust Speed Precip Events Conditions
12:15 AM 67.1 °F - 59.0 °F 75% 30.12 in 10.0 mi ENE 4.6 mph - N/A   Clear
12:35 AM 67.1 °F - 59.0 °F 75% 30.12 in 10.0 mi ENE 3.5 mph - N/A   Clear
12:55 AM 66.7 °F - 59.0 °F 76% 30.12 in 10.0 mi ENE 3.5 mph - N/A   Clear
1:15 AM 66.4 °F - 59.2 °F 78% 30.12 in 10.0 mi ENE 3.5 mph - N/A   Clear
1:35 AM 65.8 °F - 59.2 °F 79% 30.12 in 10.0 mi ENE 3.5 mph - N/A   Clear
1:55 AM 65.3 °F - 59.2 °F 81% 30.11 in 10.0 mi Calm Calm - N/A   Clear
2:15 AM 64.9 °F - 59.4 °F 82% 30.11 in 10.0 mi Calm Calm - N/A   Clear
2:35 AM 64.6 °F - 59.0 °F 82% 30.11 in 10.0 mi Calm Calm - N/A   Clear
2:55 AM 64.6 °F - 58.3 °F 80% 30.11 in 10.0 mi NE 3.5 mph - N/A   Clear
3:15 AM 64.4 °F - 58.5 °F 81% 30.10 in 10.0 mi Calm Calm - N/A   Clear
3:35 AM 64.4 °F - 58.6 °F 82% 30.10 in 10.0 mi NE 3.5 mph - N/A   Clear
3:55 AM 63.7 °F - 58.5 °F 83% 30.10 in 10.0 mi Calm Calm - N/A   Clear
4:15 AM 63.5 °F - 58.6 °F 84% 30.10 in 10.0 mi Calm Calm - N/A   Clear
4:35 AM 63.0 °F - 58.5 °F 85% 30.10 in 10.0 mi NE 4.6 mph - N/A   Clear
4:55 AM 62.6 °F - 58.3 °F 86% 30.09 in 10.0 mi ENE 3.5 mph - N/A   Clear
5:15 AM 62.1 °F - 58.3 °F 87% 30.09 in 10.0 mi Calm Calm - N/A   Clear
5:35 AM 62.8 °F - 58.6 °F 86% 30.10 in 10.0 mi Calm Calm - N/A   Clear
5:55 AM 63.3 °F - 58.6 °F 85% 30.10 in 10.0 mi Calm Calm - N/A   Clear
6:15 AM 63.3 °F - 58.8 °F 85% 30.10 in 10.0 mi Calm Calm - N/A   Clear
6:35 AM 62.8 °F - 58.6 °F 86% 30.10 in 10.0 mi NNE 3.5 mph - N/A   Clear
6:55 AM 62.6 °F - 59.0 °F 88% 30.11 in 10.0 mi Calm Calm - N/A   Clear
7:15 AM 63.0 °F - 59.0 °F 87% 30.11 in 10.0 mi Calm Calm - N/A   Clear
7:35 AM 63.5 °F - 59.4 °F 86% 30.12 in 10.0 mi Calm Calm - N/A   Clear
7:55 AM 64.4 °F - 59.4 °F 84% 30.12 in 10.0 mi Calm Calm - N/A   Clear
8:15 AM 65.8 °F - 59.5 °F 80% 30.12 in 10.0 mi NNE 3.5 mph - N/A   Clear
8:35 AM 67.5 °F - 59.2 °F 75% 30.12 in 10.0 mi NNE 3.5 mph - N/A   Clear
8:55 AM 69.1 °F - 59.0 °F 70% 30.12 in 10.0 mi NNE 5.8 mph - N/A   Clear
9:15 AM 70.7 °F - 59.2 °F 67% 30.12 in 10.0 mi NE 6.9 mph - N/A   Clear
9:35 AM 72.5 °F - 57.9 °F 60% 30.12 in 10.0 mi NE 6.9 mph - N/A   Clear
9:55 AM 73.9 °F - 58.3 °F 58% 30.12 in 10.0 mi ENE 4.6 mph - N/A   Clear
10:15 AM 75.9 °F - 58.8 °F 55% 30.12 in 7.0 mi NNE 6.9 mph - N/A   Clear
10:35 AM 76.1 °F - 59.2 °F 56% 30.13 in 10.0 mi East 4.6 mph - N/A   Clear
10:55 AM 77.0 °F - 58.5 °F 53% 30.12 in 10.0 mi NNE 5.8 mph - N/A   Clear
11:15 AM 77.9 °F - 57.6 °F 49% 30.12 in 10.0 mi ENE 4.6 mph - N/A   Clear
11:35 AM 79.0 °F - 57.7 °F 48% 30.12 in 10.0 mi NE 9.2 mph - N/A   Clear
11:55 AM 80.1 °F 80.4 °F 57.2 °F 45% 30.12 in 10.0 mi NE 11.5 mph - N/A   Clear
12:15 PM 80.8 °F 80.9 °F 57.2 °F 44% 30.11 in 10.0 mi North 8.1 mph - N/A   Clear
12:35 PM 81.5 °F 81.3 °F 56.5 °F 42% 30.10 in 10.0 mi NE 8.1 mph 16.1 mph N/A   Clear
12:55 PM 82.4 °F 81.9 °F 56.3 °F 41% 30.09 in 10.0 mi ENE 6.9 mph - N/A   Clear
1:15 PM 83.5 °F 82.6 °F 56.1 °F 39% 30.08 in 10.0 mi NNE 13.8 mph - N/A   Clear
1:35 PM 84.2 °F 83.0 °F 55.2 °F 37% 30.07 in 10.0 mi North 9.2 mph - N/A   Clear
1:55 PM 84.7 °F 83.4 °F 55.0 °F 36% 30.07 in 10.0 mi NNE 11.5 mph - N/A   Clear
2:15 PM 85.5 °F 84.1 °F 55.6 °F 36% 30.06 in 10.0 mi North 8.1 mph - N/A   Clear
2:35 PM 86.4 °F 84.7 °F 54.5 °F 34% 30.05 in 10.0 mi NNE 6.9 mph - N/A   Clear
2:55 PM 86.9 °F 84.9 °F 54.0 °F 32% 30.04 in 10.0 mi NNE 12.7 mph - N/A   Clear
3:15 PM 86.9 °F 84.9 °F 53.6 °F 32% 30.04 in 10.0 mi NNE 4.6 mph - N/A   Clear
3:35 PM 88.2 °F 85.9 °F 53.4 °F 30% 30.03 in 10.0 mi NE 8.1 mph - N/A   Clear
3:55 PM 87.8 °F 85.7 °F 53.8 °F 31% 30.02 in 10.0 mi North 13.8 mph - N/A   Clear
4:15 PM 87.4 °F 85.3 °F 53.6 °F 31% 30.02 in 10.0 mi NNE 8.1 mph - N/A   Clear
4:35 PM 87.8 °F - 52.9 °F 30% 30.01 in 10.0 mi NE 10.4 mph - N/A   Clear
4:55 PM 88.3 °F 86.3 °F 53.8 °F 31% 30.01 in 10.0 mi NE 9.2 mph - N/A   Clear
5:15 PM 88.7 °F 86.7 °F 54.1 °F 31% 30.01 in 10.0 mi East 8.1 mph - N/A   Scattered Clouds
5:35 PM 87.4 °F 85.3 °F 53.2 °F 31% 30.01 in 10.0 mi East 9.2 mph - N/A   Scattered Clouds
5:55 PM 87.4 °F 85.5 °F 53.8 °F 32% 30.01 in 10.0 mi ENE 6.9 mph - N/A   Clear
6:15 PM 87.1 °F 85.1 °F 54.0 °F 32% 30.01 in 10.0 mi East 8.1 mph - N/A   Clear
6:35 PM 86.4 °F 84.4 °F 53.4 °F 32% 30.01 in 10.0 mi East 10.4 mph - N/A   Clear
6:55 PM 85.8 °F 84.0 °F 54.0 °F 33% 30.01 in 10.0 mi East 5.8 mph - N/A   Clear
7:15 PM 84.7 °F 83.4 °F 54.9 °F 36% 30.01 in 10.0 mi East 8.1 mph - N/A   Clear
7:35 PM 82.9 °F 82.4 °F 57.0 °F 41% 30.02 in 10.0 mi East 8.1 mph - N/A   Clear
7:55 PM 81.7 °F 81.5 °F 57.4 °F 43% 30.02 in 10.0 mi East 8.1 mph - N/A   Clear
8:15 PM 79.3 °F - 58.1 °F 48% 30.02 in 10.0 mi East 6.9 mph - N/A   Clear
8:35 PM 78.1 °F - 58.5 °F 51% 30.03 in 10.0 mi East 5.8 mph - N/A   Clear
8:55 PM 77.0 °F - 59.0 °F 54% 30.03 in 10.0 mi East 4.6 mph - N/A   Clear
9:15 PM 76.3 °F - 59.0 °F 55% 30.04 in 10.0 mi ESE 4.6 mph - N/A   Clear
9:35 PM 75.9 °F - 59.0 °F 56% 30.04 in 10.0 mi East 5.8 mph - N/A   Clear
9:55 PM 74.8 °F - 59.0 °F 58% 30.05 in 10.0 mi East 4.6 mph - N/A   Clear
10:15 PM 73.8 °F - 59.0 °F 60% 30.06 in 10.0 mi East 4.6 mph - N/A   Clear
10:35 PM 72.5 °F - 59.5 °F 64% 30.06 in 10.0 mi East 3.5 mph - N/A   Clear
10:55 PM 72.5 °F - 59.9 °F 64% 30.06 in 10.0 mi East 3.5 mph - N/A   Clear
11:15 PM 72.5 °F - 59.4 °F 63% 30.06 in 10.0 mi East 3.5 mph - N/A   Clear
11:35 PM 72.5 °F - 59.9 °F 64% 30.06 in 10.0 mi Calm Calm - N/A   Clear
11:55 PM 71.4 °F - 59.9 °F 67% 30.07 in 10.0 mi ESE 3.5 mph - N/A   Clear